createdAt,value
2019-03-31T00:01:07.630Z,1011.33
2019-03-31T00:01:55.840Z,1011.30
2019-03-31T00:02:54.875Z,1011.29
2019-03-31T00:03:56.903Z,1011.32
2019-03-31T00:04:53.884Z,1011.34
2019-03-31T00:05:53.904Z,1011.30
2019-03-31T00:06:54.828Z,1011.26
2019-03-31T00:07:54.846Z,1011.27
2019-03-31T00:08:56.891Z,1011.31
2019-03-31T00:10:01.388Z,1011.27
2019-03-31T00:11:00.719Z,1011.27
2019-03-31T00:11:54.339Z,1011.27
2019-03-31T00:12:54.330Z,1011.26
2019-03-31T00:13:54.338Z,1011.27
2019-03-31T00:14:53.791Z,1011.25
2019-03-31T00:15:53.767Z,1011.27
2019-03-31T00:16:53.762Z,1011.26
2019-03-31T00:17:58.854Z,1011.33
2019-03-31T00:19:15.328Z,1011.28
2019-03-31T00:19:53.790Z,1011.27
2019-03-31T00:20:53.700Z,1011.29
2019-03-31T00:21:54.358Z,1011.29
2019-03-31T00:22:56.334Z,1011.35
2019-03-31T00:23:57.197Z,1011.37
2019-03-31T00:24:53.793Z,1011.35
2019-03-31T00:25:53.639Z,1011.35
2019-03-31T00:26:53.639Z,1011.37
2019-03-31T00:28:08.371Z,1011.30
2019-03-31T00:28:53.641Z,1011.34
2019-03-31T00:29:56.881Z,1011.30
2019-03-31T00:31:00.324Z,1011.27
2019-03-31T00:31:53.572Z,1011.28
2019-03-31T00:32:53.569Z,1011.32
2019-03-31T00:33:53.551Z,1011.28
2019-03-31T00:34:53.587Z,1011.30
2019-03-31T00:35:53.566Z,1011.31
2019-03-31T00:37:14.521Z,1011.34
2019-03-31T00:38:21.325Z,1011.34
2019-03-31T00:38:53.538Z,1011.33
2019-03-31T00:39:53.519Z,1011.32
2019-03-31T00:40:53.516Z,1011.31
2019-03-31T00:41:53.478Z,1011.34
2019-03-31T00:42:53.525Z,1011.37
2019-03-31T00:43:53.498Z,1011.33
2019-03-31T00:44:56.323Z,1011.36
2019-03-31T00:45:55.442Z,1011.38
2019-03-31T00:47:15.401Z,1011.36
2019-03-31T00:47:54.391Z,1011.38
2019-03-31T00:48:56.336Z,1011.35
2019-03-31T00:49:53.394Z,1011.34
2019-03-31T00:51:00.329Z,1011.34
2019-03-31T00:51:53.393Z,1011.40
2019-03-31T00:52:53.386Z,1011.40
2019-03-31T00:53:53.390Z,1011.43
2019-03-31T00:54:55.821Z,1011.47
2019-03-31T00:55:53.822Z,1011.45
2019-03-31T00:56:59.859Z,1011.45
2019-03-31T00:57:54.846Z,1011.43
2019-03-31T00:58:53.271Z,1011.40
2019-03-31T00:59:53.260Z,1011.41
2019-03-31T01:00:53.252Z,1011.38
2019-03-31T01:01:53.303Z,1011.38
2019-03-31T01:02:55.826Z,1011.41
2019-03-31T01:03:53.840Z,1011.39
2019-03-31T01:04:53.206Z,1011.35
2019-03-31T01:05:53.821Z,1011.38
2019-03-31T01:06:53.818Z,1011.39
2019-03-31T01:08:03.904Z,1011.40
2019-03-31T01:09:01.744Z,1011.42
2019-03-31T01:10:03.473Z,1011.38
2019-03-31T01:10:59.962Z,1011.39
2019-03-31T01:11:53.963Z,1011.39
2019-03-31T01:13:01.693Z,1011.43
2019-03-31T01:13:56.047Z,1011.38
2019-03-31T01:14:53.192Z,1011.39
2019-03-31T01:15:53.122Z,1011.41
2019-03-31T01:16:54.015Z,1011.41
2019-03-31T01:17:54.045Z,1011.48
2019-03-31T01:18:53.061Z,1011.48
2019-03-31T01:19:53.035Z,1011.46
2019-03-31T01:20:53.064Z,1011.45
2019-03-31T01:21:56.135Z,1011.47
2019-03-31T01:23:07.501Z,1011.49
2019-03-31T01:23:52.989Z,1011.46
2019-03-31T01:24:53.004Z,1011.42
2019-03-31T01:25:52.988Z,1011.41
2019-03-31T01:26:52.952Z,1011.38
2019-03-31T01:27:53.073Z,1011.38
2019-03-31T01:29:07.502Z,1011.44
2019-03-31T01:29:54.554Z,1011.42
2019-03-31T01:30:55.500Z,1011.44
2019-03-31T01:31:52.915Z,1011.47
2019-03-31T01:32:52.891Z,1011.42
2019-03-31T01:33:52.951Z,1011.42
2019-03-31T01:34:52.866Z,1011.41
2019-03-31T01:35:53.025Z,1011.40
2019-03-31T01:36:55.502Z,1011.47
2019-03-31T01:37:53.572Z,1011.46
2019-03-31T01:38:53.498Z,1011.44
2019-03-31T01:39:52.844Z,1011.43
2019-03-31T01:40:52.830Z,1011.45
2019-03-31T01:42:13.791Z,1011.43
2019-03-31T01:42:52.820Z,1011.45
2019-03-31T01:43:52.767Z,1011.43
2019-03-31T01:44:52.753Z,1011.45
2019-03-31T01:45:55.497Z,1011.45
2019-03-31T01:46:53.026Z,1011.45
2019-03-31T01:47:52.727Z,1011.49
2019-03-31T01:48:52.708Z,1011.51
2019-03-31T01:49:53.551Z,1011.53
2019-03-31T01:50:53.503Z,1011.56
2019-03-31T01:52:00.622Z,1011.58
2019-03-31T01:52:55.516Z,1011.54
2019-03-31T01:53:52.653Z,1011.57
2019-03-31T01:54:53.553Z,1011.60
2019-03-31T01:55:52.667Z,1011.61
2019-03-31T01:56:54.532Z,1011.61
2019-03-31T01:57:52.681Z,1011.62
2019-03-31T01:58:53.513Z,1011.59
2019-03-31T01:59:52.589Z,1011.60
2019-03-31T02:00:52.575Z,1011.66
2019-03-31T02:02:03.632Z,1011.64
2019-03-31T02:02:53.551Z,1011.63
2019-03-31T02:03:53.494Z,1011.61
2019-03-31T02:04:52.527Z,1011.64
2019-03-31T02:05:52.524Z,1011.61
2019-03-31T02:06:52.502Z,1011.63
2019-03-31T02:07:52.508Z,1011.64
2019-03-31T02:08:52.480Z,1011.65
2019-03-31T02:09:52.474Z,1011.62
2019-03-31T02:10:52.461Z,1011.61
2019-03-31T02:11:54.035Z,1011.63
2019-03-31T02:12:52.992Z,1011.60
2019-03-31T02:13:54.995Z,1011.63
2019-03-31T02:14:52.412Z,1011.64
2019-03-31T02:15:52.997Z,1011.64
2019-03-31T02:16:53.000Z,1011.64
2019-03-31T02:17:53.027Z,1011.65
2019-03-31T02:18:52.367Z,1011.66
2019-03-31T02:19:52.995Z,1011.69
2019-03-31T02:20:53.035Z,1011.61
2019-03-31T02:22:06.994Z,1011.65
2019-03-31T02:22:52.341Z,1011.64
2019-03-31T02:23:52.339Z,1011.64
2019-03-31T02:24:52.300Z,1011.67
2019-03-31T02:25:52.297Z,1011.66
2019-03-31T02:26:52.282Z,1011.71
2019-03-31T02:27:54.995Z,1011.70
2019-03-31T02:28:52.512Z,1011.72
2019-03-31T02:29:52.243Z,1011.72
2019-03-31T02:30:52.234Z,1011.70
2019-03-31T02:31:53.001Z,1011.71
2019-03-31T02:32:55.078Z,1011.74
2019-03-31T02:33:54.030Z,1011.72
2019-03-31T02:34:53.019Z,1011.75
2019-03-31T02:35:52.206Z,1011.75
2019-03-31T02:36:52.985Z,1011.79
2019-03-31T02:37:52.985Z,1011.77
2019-03-31T02:38:58.985Z,1011.80
2019-03-31T02:39:52.522Z,1011.80
2019-03-31T02:40:52.130Z,1011.78
2019-03-31T02:41:52.138Z,1011.79
2019-03-31T02:42:52.100Z,1011.79
2019-03-31T02:43:54.071Z,1011.80
2019-03-31T02:44:52.080Z,1011.81
2019-03-31T02:45:52.099Z,1011.78
2019-03-31T02:46:52.993Z,1011.80
2019-03-31T02:47:52.997Z,1011.83
2019-03-31T02:48:52.985Z,1011.85
2019-03-31T02:49:52.040Z,1011.86
2019-03-31T02:50:55.053Z,1011.87
2019-03-31T02:51:52.017Z,1011.89
2019-03-31T02:52:52.488Z,1011.88
2019-03-31T02:53:51.996Z,1011.89
2019-03-31T02:54:51.963Z,1011.85
2019-03-31T02:55:52.483Z,1011.87
2019-03-31T02:56:55.012Z,1011.90
2019-03-31T02:57:51.943Z,1011.91
2019-03-31T02:58:51.924Z,1011.91
2019-03-31T02:59:51.907Z,1011.97
2019-03-31T03:00:51.914Z,1011.96
2019-03-31T03:01:52.527Z,1011.95
2019-03-31T03:02:52.531Z,1011.93
2019-03-31T03:03:51.869Z,1011.95
2019-03-31T03:04:51.855Z,1011.94
2019-03-31T03:05:51.847Z,1011.97
2019-03-31T03:06:52.483Z,1011.96
2019-03-31T03:07:52.484Z,1011.96
2019-03-31T03:08:51.841Z,1011.98
2019-03-31T03:09:51.795Z,1011.97
2019-03-31T03:10:51.789Z,1011.98
2019-03-31T03:11:51.776Z,1012.00
2019-03-31T03:12:52.492Z,1012.01
2019-03-31T03:13:52.504Z,1012.04
2019-03-31T03:14:52.530Z,1012.02
2019-03-31T03:15:51.728Z,1011.97
2019-03-31T03:16:54.486Z,1012.03
2019-03-31T03:17:51.710Z,1012.01
2019-03-31T03:18:55.598Z,1012.03
2019-03-31T03:19:52.528Z,1012.04
2019-03-31T03:20:51.848Z,1012.11
2019-03-31T03:21:51.680Z,1012.03
2019-03-31T03:23:06.544Z,1012.11
2019-03-31T03:23:52.485Z,1012.06
2019-03-31T03:24:54.482Z,1012.06
2019-03-31T03:25:56.510Z,1012.03
2019-03-31T03:26:52.638Z,1012.00
2019-03-31T03:27:51.627Z,1012.03
2019-03-31T03:28:52.485Z,1012.04
2019-03-31T03:29:51.597Z,1012.05
2019-03-31T03:30:51.630Z,1012.05
2019-03-31T03:31:51.563Z,1012.04
2019-03-31T03:33:13.759Z,1012.05
2019-03-31T03:33:54.499Z,1012.05
2019-03-31T03:34:51.515Z,1012.08
2019-03-31T03:35:52.482Z,1012.11
2019-03-31T03:36:52.477Z,1012.12
2019-03-31T03:37:51.483Z,1012.12
2019-03-31T03:38:51.502Z,1012.17
2019-03-31T03:39:51.467Z,1012.19
2019-03-31T03:40:51.981Z,1012.19
2019-03-31T03:41:51.980Z,1012.18
2019-03-31T03:42:51.445Z,1012.18
2019-03-31T03:43:55.601Z,1012.23
2019-03-31T03:44:51.411Z,1012.18
2019-03-31T03:45:51.394Z,1012.19
2019-03-31T03:46:51.388Z,1012.18
2019-03-31T03:47:51.528Z,1012.24
2019-03-31T03:48:51.390Z,1012.23
2019-03-31T03:49:51.346Z,1012.26
2019-03-31T03:50:51.373Z,1012.27
2019-03-31T03:51:51.324Z,1012.27
2019-03-31T03:52:51.330Z,1012.33
2019-03-31T03:53:53.981Z,1012.34
2019-03-31T03:54:51.998Z,1012.33
2019-03-31T03:55:51.279Z,1012.34
2019-03-31T03:56:51.268Z,1012.31
2019-03-31T03:57:51.265Z,1012.33
2019-03-31T03:58:52.091Z,1012.34
2019-03-31T03:59:51.278Z,1012.35
2019-03-31T04:00:57.978Z,1012.35
2019-03-31T04:01:51.209Z,1012.35
2019-03-31T04:02:51.200Z,1012.41
2019-03-31T04:03:51.228Z,1012.40
2019-03-31T04:04:51.983Z,1012.41
2019-03-31T04:05:53.037Z,1012.37
2019-03-31T04:06:51.157Z,1012.39
2019-03-31T04:07:51.163Z,1012.44
2019-03-31T04:08:51.134Z,1012.45
2019-03-31T04:09:51.504Z,1012.43
2019-03-31T04:10:51.512Z,1012.46
2019-03-31T04:11:51.105Z,1012.46
2019-03-31T04:12:51.088Z,1012.45
2019-03-31T04:13:51.082Z,1012.47
2019-03-31T04:14:51.076Z,1012.46
2019-03-31T04:15:51.098Z,1012.49
2019-03-31T04:16:51.046Z,1012.54
2019-03-31T04:17:51.052Z,1012.54
2019-03-31T04:18:53.977Z,1012.52
2019-03-31T04:19:51.012Z,1012.57
2019-03-31T04:20:51.042Z,1012.57
2019-03-31T04:21:51.518Z,1012.65
2019-03-31T04:22:50.980Z,1012.67
2019-03-31T04:23:53.470Z,1012.66
2019-03-31T04:24:53.507Z,1012.64
2019-03-31T04:25:50.968Z,1012.70
2019-03-31T04:26:50.933Z,1012.73
2019-03-31T04:27:50.939Z,1012.71
2019-03-31T04:28:50.909Z,1012.75
2019-03-31T04:29:50.903Z,1012.72
2019-03-31T04:30:50.910Z,1012.76
2019-03-31T04:31:50.898Z,1012.81
2019-03-31T04:32:50.899Z,1012.88
2019-03-31T04:33:52.798Z,1012.96
2019-03-31T04:34:50.852Z,1013.04
2019-03-31T04:35:57.527Z,1012.91
2019-03-31T04:36:53.499Z,1013.01
2019-03-31T04:37:51.491Z,1012.94
2019-03-31T04:38:51.472Z,1012.99
2019-03-31T04:39:50.810Z,1012.99
2019-03-31T04:40:51.480Z,1013.00
2019-03-31T04:41:50.765Z,1013.06
2019-03-31T04:42:50.752Z,1013.11
2019-03-31T04:43:50.741Z,1013.26
2019-03-31T04:44:50.895Z,1013.10
2019-03-31T04:45:50.740Z,1013.16
2019-03-31T04:46:50.707Z,1013.31
2019-03-31T04:47:50.733Z,1013.37
2019-03-31T04:48:53.470Z,1013.27
2019-03-31T04:49:50.681Z,1013.29
2019-03-31T04:50:53.991Z,1013.31
2019-03-31T04:51:50.675Z,1013.35
2019-03-31T04:52:50.639Z,1013.33
2019-03-31T04:53:53.519Z,1013.33
2019-03-31T04:54:53.989Z,1013.33
2019-03-31T04:55:50.626Z,1013.38
2019-03-31T04:56:50.593Z,1013.35
2019-03-31T04:57:50.581Z,1013.36
2019-03-31T04:58:50.573Z,1013.39
2019-03-31T04:59:53.463Z,1013.40
2019-03-31T05:00:52.490Z,1013.49
2019-03-31T05:01:51.465Z,1013.45
2019-03-31T05:02:50.529Z,1013.50
2019-03-31T05:04:03.988Z,1013.53
2019-03-31T05:04:50.505Z,1013.53
2019-03-31T05:05:50.533Z,1013.54
2019-03-31T05:06:50.483Z,1013.56
2019-03-31T05:07:50.486Z,1013.55
2019-03-31T05:08:50.463Z,1013.58
2019-03-31T05:09:50.484Z,1013.61
2019-03-31T05:10:50.447Z,1013.60
2019-03-31T05:11:50.447Z,1013.59
2019-03-31T05:12:50.426Z,1013.68
2019-03-31T05:13:50.433Z,1013.62
2019-03-31T05:14:50.415Z,1013.66
2019-03-31T05:15:50.383Z,1013.67
2019-03-31T05:16:50.389Z,1013.67
2019-03-31T05:17:50.448Z,1013.66
2019-03-31T05:18:50.928Z,1013.66
2019-03-31T05:19:50.960Z,1013.65
2019-03-31T05:20:52.959Z,1013.66
2019-03-31T05:21:50.994Z,1013.68
2019-03-31T05:22:52.814Z,1013.64
2019-03-31T05:23:52.974Z,1013.70
2019-03-31T05:24:50.318Z,1013.69
2019-03-31T05:25:50.269Z,1013.72
2019-03-31T05:26:50.957Z,1013.76
2019-03-31T05:27:52.957Z,1013.77
2019-03-31T05:28:50.243Z,1013.76
2019-03-31T05:29:50.249Z,1013.76
2019-03-31T05:30:50.223Z,1013.77
2019-03-31T05:31:50.214Z,1013.76
2019-03-31T05:32:50.991Z,1013.77
2019-03-31T05:33:50.957Z,1013.83
2019-03-31T05:34:52.957Z,1013.77
2019-03-31T05:35:50.967Z,1013.81
2019-03-31T05:36:50.188Z,1013.84
2019-03-31T05:37:51.423Z,1013.85
2019-03-31T05:38:52.959Z,1013.87
2019-03-31T05:39:52.959Z,1013.85
2019-03-31T05:40:52.985Z,1013.85
2019-03-31T05:41:50.090Z,1013.87
2019-03-31T05:42:50.109Z,1013.87
2019-03-31T05:44:04.819Z,1013.90
2019-03-31T05:44:51.965Z,1013.93
2019-03-31T05:45:52.490Z,1013.87
2019-03-31T05:46:50.037Z,1013.93
2019-03-31T05:47:50.026Z,1013.97
2019-03-31T05:48:50.029Z,1013.97
2019-03-31T05:49:51.988Z,1013.95
2019-03-31T05:50:49.987Z,1013.92
2019-03-31T05:51:49.983Z,1013.94
2019-03-31T05:52:52.965Z,1013.98
2019-03-31T05:53:50.458Z,1013.90
2019-03-31T05:54:49.974Z,1013.93
2019-03-31T05:55:50.454Z,1013.91
2019-03-31T05:56:49.922Z,1013.91
2019-03-31T05:57:49.912Z,1013.93
2019-03-31T05:58:49.934Z,1013.89
2019-03-31T05:59:49.929Z,1013.89
2019-03-31T06:00:50.454Z,1013.89
2019-03-31T06:01:50.462Z,1013.86
2019-03-31T06:02:49.866Z,1013.93
2019-03-31T06:03:49.851Z,1013.91
2019-03-31T06:04:52.467Z,1013.92
2019-03-31T06:05:51.495Z,1013.95
2019-03-31T06:06:49.811Z,1014.00
2019-03-31T06:07:52.521Z,1014.05
2019-03-31T06:08:49.786Z,1014.06
2019-03-31T06:09:52.449Z,1014.09
2019-03-31T06:10:49.764Z,1014.13
2019-03-31T06:11:53.266Z,1014.11
2019-03-31T06:12:50.461Z,1014.16
2019-03-31T06:13:49.745Z,1014.15
2019-03-31T06:14:49.733Z,1014.21
2019-03-31T06:15:49.730Z,1014.24
2019-03-31T06:16:49.729Z,1014.22
2019-03-31T06:17:49.706Z,1014.23
2019-03-31T06:18:51.412Z,1014.24
2019-03-31T06:19:49.668Z,1014.26
2019-03-31T06:20:49.653Z,1014.25
2019-03-31T06:21:50.471Z,1014.26
2019-03-31T06:22:49.722Z,1014.25
2019-03-31T06:23:49.639Z,1014.23
2019-03-31T06:24:49.622Z,1014.28
2019-03-31T06:25:49.600Z,1014.29
2019-03-31T06:26:49.592Z,1014.27
2019-03-31T06:27:49.688Z,1014.26
2019-03-31T06:28:49.608Z,1014.27
2019-03-31T06:29:49.593Z,1014.30
2019-03-31T06:30:49.574Z,1014.25
2019-03-31T06:31:49.531Z,1014.27
2019-03-31T06:32:49.543Z,1014.28
2019-03-31T06:33:49.571Z,1014.27
2019-03-31T06:34:49.565Z,1014.29
2019-03-31T06:35:49.576Z,1014.32
2019-03-31T06:36:49.480Z,1014.32
2019-03-31T06:37:49.465Z,1014.31
2019-03-31T06:38:49.467Z,1014.30
2019-03-31T06:39:49.454Z,1014.34
2019-03-31T06:40:49.433Z,1014.33
2019-03-31T06:41:49.446Z,1014.30
2019-03-31T06:42:49.416Z,1014.31
2019-03-31T06:43:49.432Z,1014.33
2019-03-31T06:44:49.411Z,1014.36
2019-03-31T06:45:49.378Z,1014.38
2019-03-31T06:46:49.357Z,1014.34
2019-03-31T06:47:49.394Z,1014.37
2019-03-31T06:48:49.403Z,1014.36
2019-03-31T06:49:49.361Z,1014.34
2019-03-31T06:50:49.345Z,1014.35
2019-03-31T06:51:49.309Z,1014.39
2019-03-31T06:52:49.303Z,1014.52
2019-03-31T06:53:51.438Z,1014.49
2019-03-31T06:54:52.721Z,1014.41
2019-03-31T06:55:52.567Z,1014.42
2019-03-31T06:56:49.275Z,1014.47
2019-03-31T06:57:49.251Z,1014.46
2019-03-31T06:58:49.224Z,1014.49
2019-03-31T06:59:49.227Z,1014.52
2019-03-31T07:00:49.217Z,1014.51
2019-03-31T07:01:49.214Z,1014.49
2019-03-31T07:02:49.189Z,1014.53
2019-03-31T07:03:49.223Z,1014.52
2019-03-31T07:05:00.461Z,1014.57
2019-03-31T07:05:50.174Z,1014.50
2019-03-31T07:06:49.241Z,1014.53
2019-03-31T07:07:49.159Z,1014.49
2019-03-31T07:08:49.163Z,1014.56
2019-03-31T07:09:49.100Z,1014.59
2019-03-31T07:10:49.123Z,1014.61
2019-03-31T07:11:49.097Z,1014.64
2019-03-31T07:12:49.124Z,1014.59
2019-03-31T07:13:49.077Z,1014.63
2019-03-31T07:14:49.095Z,1014.64
2019-03-31T07:15:49.042Z,1014.61
2019-03-31T07:16:49.023Z,1014.65
2019-03-31T07:17:49.022Z,1014.66
2019-03-31T07:18:49.063Z,1014.73
2019-03-31T07:19:49.012Z,1014.73
2019-03-31T07:20:48.975Z,1014.73
2019-03-31T07:21:48.992Z,1014.70
2019-03-31T07:22:48.958Z,1014.71
2019-03-31T07:23:48.961Z,1014.73
2019-03-31T07:24:48.976Z,1014.75
2019-03-31T07:25:49.036Z,1014.73
2019-03-31T07:26:48.912Z,1014.76
2019-03-31T07:27:48.906Z,1014.77
2019-03-31T07:28:48.896Z,1014.81
2019-03-31T07:29:48.961Z,1014.81
2019-03-31T07:30:48.881Z,1014.86
2019-03-31T07:31:48.855Z,1014.85
2019-03-31T07:32:48.850Z,1014.89
2019-03-31T07:33:48.835Z,1014.86
2019-03-31T07:34:48.851Z,1014.83
2019-03-31T07:35:48.828Z,1014.86
2019-03-31T07:36:48.807Z,1014.88
2019-03-31T07:37:48.782Z,1014.87
2019-03-31T07:38:48.875Z,1014.90
2019-03-31T07:39:49.041Z,1014.89
2019-03-31T07:40:48.960Z,1014.87
2019-03-31T07:41:49.037Z,1014.88
2019-03-31T07:42:56.608Z,1014.91
2019-03-31T07:43:48.799Z,1014.95
2019-03-31T07:44:49.539Z,1014.86
2019-03-31T07:45:48.905Z,1014.89
2019-03-31T07:46:48.685Z,1014.92
2019-03-31T07:47:48.843Z,1014.92
2019-03-31T07:48:48.732Z,1014.92
2019-03-31T07:49:48.696Z,1014.88
2019-03-31T07:50:48.725Z,1014.90
2019-03-31T07:51:48.701Z,1014.93
2019-03-31T07:52:48.659Z,1014.92
2019-03-31T07:56:17.487Z,1014.85
2019-03-31T07:57:16.579Z,1014.87
2019-03-31T07:58:16.511Z,1014.82
2019-03-31T07:59:16.202Z,1014.85
2019-03-31T08:00:16.143Z,1014.79
2019-03-31T08:01:25.191Z,1014.80
2019-03-31T08:02:16.328Z,1014.83
2019-03-31T08:03:25.995Z,1014.92
2019-03-31T08:04:23.949Z,1014.89
2019-03-31T08:05:16.139Z,1014.86
2019-03-31T08:06:16.095Z,1014.91
2019-03-31T08:07:16.230Z,1014.98
2019-03-31T08:08:16.154Z,1014.97
2019-03-31T08:09:16.103Z,1014.99
2019-03-31T08:10:24.722Z,1015.04
2019-03-31T08:12:29.973Z,1014.98
2019-03-31T08:13:29.867Z,1015.01
2019-03-31T08:14:29.885Z,1015.04
2019-03-31T08:15:29.746Z,1015.07
2019-03-31T08:16:29.769Z,1015.05
2019-03-31T08:17:29.734Z,1015.09
2019-03-31T08:18:29.729Z,1015.13
2019-03-31T08:19:29.714Z,1015.08
2019-03-31T08:20:29.712Z,1015.11
2019-03-31T08:21:29.688Z,1015.08
2019-03-31T08:22:29.665Z,1015.12
2019-03-31T08:23:29.651Z,1015.13
2019-03-31T08:24:29.649Z,1015.03
2019-03-31T08:25:30.038Z,1015.10
2019-03-31T08:26:29.634Z,1015.13
2019-03-31T08:27:30.376Z,1015.17
2019-03-31T08:28:29.607Z,1015.16
2019-03-31T08:29:30.450Z,1015.13
2019-03-31T08:30:29.597Z,1015.22
2019-03-31T08:31:29.582Z,1015.19
2019-03-31T08:32:29.566Z,1015.19
2019-03-31T08:33:29.611Z,1015.22
2019-03-31T08:34:29.540Z,1015.18
2019-03-31T08:35:29.535Z,1015.22
2019-03-31T08:36:29.590Z,1015.22
2019-03-31T08:37:29.498Z,1015.22
2019-03-31T08:38:29.491Z,1015.29
2019-03-31T08:39:29.481Z,1015.27
2019-03-31T08:40:29.454Z,1015.28
2019-03-31T08:41:29.467Z,1015.29
2019-03-31T08:42:29.439Z,1015.36
2019-03-31T08:43:29.428Z,1015.33
2019-03-31T08:44:29.478Z,1015.35
2019-03-31T08:45:30.598Z,1015.36
2019-03-31T08:46:29.406Z,1015.31
2019-03-31T08:47:29.430Z,1015.34
2019-03-31T08:48:29.444Z,1015.37
2019-03-31T08:49:29.357Z,1015.39
2019-03-31T08:50:29.341Z,1015.35
2019-03-31T08:51:29.345Z,1015.42
2019-03-31T08:52:29.322Z,1015.37
2019-03-31T08:53:29.316Z,1015.38
2019-03-31T08:54:29.333Z,1015.44
2019-03-31T08:55:29.308Z,1015.45
2019-03-31T08:56:29.278Z,1015.42
2019-03-31T08:57:29.271Z,1015.40
2019-03-31T08:58:29.293Z,1015.51
2019-03-31T08:59:29.249Z,1015.52
2019-03-31T09:00:29.270Z,1015.54
2019-03-31T09:01:29.221Z,1015.51
2019-03-31T09:02:29.213Z,1015.50
2019-03-31T09:03:29.218Z,1015.40
2019-03-31T09:04:29.187Z,1015.38
2019-03-31T09:05:29.203Z,1015.33
2019-03-31T09:06:29.193Z,1015.33
2019-03-31T09:07:29.152Z,1015.31
2019-03-31T09:08:29.139Z,1015.33
2019-03-31T09:09:29.138Z,1015.37
2019-03-31T09:10:29.124Z,1015.40
2019-03-31T09:11:29.126Z,1015.38
2019-03-31T09:12:29.116Z,1015.41
2019-03-31T09:13:29.085Z,1015.44
2019-03-31T09:14:29.088Z,1015.42
2019-03-31T09:15:29.065Z,1015.39
2019-03-31T09:16:29.052Z,1015.44
2019-03-31T09:17:29.068Z,1015.47
2019-03-31T09:18:29.076Z,1015.45
2019-03-31T09:19:29.050Z,1015.49
2019-03-31T09:20:29.016Z,1015.46
2019-03-31T09:21:28.994Z,1015.45
2019-03-31T09:22:29.008Z,1015.49
2019-03-31T09:23:29.004Z,1015.47
2019-03-31T09:24:29.015Z,1015.52
2019-03-31T09:25:28.951Z,1015.52
2019-03-31T09:26:28.941Z,1015.59
2019-03-31T09:27:28.932Z,1015.60
2019-03-31T09:28:28.943Z,1015.63
2019-03-31T09:29:28.959Z,1015.65
2019-03-31T09:30:29.244Z,1015.63
2019-03-31T09:31:29.818Z,1015.64
2019-03-31T09:32:29.399Z,1015.70
2019-03-31T09:33:28.883Z,1015.69
2019-03-31T09:34:30.198Z,1015.70
2019-03-31T09:35:28.988Z,1015.72
2019-03-31T09:36:31.111Z,1015.76
2019-03-31T09:37:53.030Z,1015.76
2019-03-31T09:38:35.284Z,1015.77
2019-03-31T09:39:36.470Z,1015.76
2019-03-31T09:40:32.373Z,1015.77
2019-03-31T09:46:19.983Z,1015.79
2019-03-31T09:47:18.796Z,1015.78
2019-03-31T09:49:52.720Z,1015.79
2019-03-31T09:50:56.469Z,1015.80
2019-03-31T09:54:35.012Z,1015.83
2019-03-31T09:55:23.555Z,1015.77
2019-03-31T09:56:52.517Z,1015.75
2019-03-31T09:57:27.463Z,1015.82
2019-03-31T09:58:23.656Z,1015.77
2019-03-31T10:00:27.105Z,1015.78
2019-03-31T10:01:22.928Z,1015.72
2019-03-31T10:02:22.040Z,1015.76
2019-03-31T10:03:22.709Z,1015.70
2019-03-31T10:04:26.682Z,1015.73
2019-03-31T10:05:26.551Z,1015.70
2019-03-31T10:06:30.632Z,1015.71
2019-03-31T10:07:31.437Z,1015.72
2019-03-31T10:08:30.662Z,1015.73
2019-03-31T10:09:25.440Z,1015.71
2019-03-31T10:10:27.020Z,1015.69
2019-03-31T10:11:31.147Z,1015.67
2019-03-31T10:12:27.120Z,1015.72
2019-03-31T10:13:32.600Z,1015.72
2019-03-31T10:14:27.266Z,1015.71
2019-03-31T10:15:29.130Z,1015.73
2019-03-31T10:16:24.975Z,1015.72
2019-03-31T10:17:23.870Z,1015.78
2019-03-31T10:18:25.250Z,1015.68
2019-03-31T10:19:39.229Z,1015.65
2019-03-31T10:20:26.803Z,1015.64
2019-03-31T10:21:25.515Z,1015.65
2019-03-31T10:22:25.980Z,1015.64
2019-03-31T10:23:22.633Z,1015.62
2019-03-31T10:24:27.251Z,1015.63
2019-03-31T10:25:24.809Z,1015.65
2019-03-31T10:26:31.816Z,1015.66
2019-03-31T10:27:32.197Z,1015.68
2019-03-31T10:28:29.478Z,1015.70
2019-03-31T10:29:28.026Z,1015.70
2019-03-31T10:30:39.596Z,1015.73
2019-03-31T10:31:25.379Z,1015.68
2019-03-31T10:34:26.119Z,1015.73
2019-03-31T10:35:12.369Z,1015.80
2019-03-31T10:36:05.154Z,1015.72
2019-03-31T10:37:19.833Z,1015.74
2019-03-31T10:38:05.533Z,1015.74
2019-03-31T10:39:19.040Z,1015.69
2019-03-31T10:40:21.136Z,1015.60
2019-03-31T10:41:24.010Z,1015.69
2019-03-31T10:42:06.735Z,1015.72
2019-03-31T10:43:17.218Z,1015.65
2019-03-31T10:44:19.099Z,1015.69
2019-03-31T10:51:01.447Z,1015.62
2019-03-31T11:05:15.718Z,1015.50
2019-03-31T11:05:44.120Z,1015.56
2019-03-31T11:06:38.762Z,1015.56
2019-03-31T11:08:16.215Z,1015.55
2019-03-31T11:12:40.207Z,1015.58
2019-03-31T11:13:31.980Z,1015.58
2019-03-31T11:14:50.345Z,1015.58
2019-03-31T11:15:29.767Z,1015.60
2019-03-31T11:16:27.775Z,1015.64
2019-03-31T11:17:26.224Z,1015.64
2019-03-31T11:18:25.908Z,1015.53
2019-03-31T11:19:26.009Z,1015.65
2019-03-31T11:20:25.729Z,1015.63
2019-03-31T11:21:28.935Z,1015.62
2019-03-31T11:22:26.449Z,1015.58
2019-03-31T11:23:26.833Z,1015.58
2019-03-31T11:24:25.693Z,1015.57
2019-03-31T11:25:29.226Z,1015.56
2019-03-31T11:26:25.690Z,1015.53
2019-03-31T11:27:26.265Z,1015.45
2019-03-31T11:28:25.707Z,1015.50
2019-03-31T11:29:25.800Z,1015.52
2019-03-31T11:30:27.458Z,1015.46
2019-03-31T11:31:26.781Z,1015.36
2019-03-31T11:32:26.198Z,1015.36
2019-03-31T11:33:25.792Z,1015.39
2019-03-31T11:34:26.292Z,1015.41
2019-03-31T11:35:26.204Z,1015.46
2019-03-31T11:36:26.159Z,1015.44
2019-03-31T11:37:27.301Z,1015.46
2019-03-31T11:38:25.652Z,1015.38
2019-03-31T11:39:25.939Z,1015.38
2019-03-31T11:40:35.210Z,1015.37
2019-03-31T11:41:26.743Z,1015.42
2019-03-31T11:42:28.141Z,1015.42
2019-03-31T11:43:25.529Z,1015.43
2019-03-31T11:44:27.637Z,1015.44
2019-03-31T11:45:26.215Z,1015.42
2019-03-31T11:46:26.064Z,1015.43
2019-03-31T11:47:28.471Z,1015.44
2019-03-31T11:48:26.246Z,1015.44
2019-03-31T11:49:26.187Z,1015.43
2019-03-31T11:50:26.079Z,1015.42
2019-03-31T11:51:26.898Z,1015.42
2019-03-31T11:52:26.129Z,1015.44
2019-03-31T11:53:25.866Z,1015.50
2019-03-31T11:54:26.311Z,1015.43
2019-03-31T11:55:26.834Z,1015.50
2019-03-31T11:56:25.403Z,1015.49
2019-03-31T11:57:26.007Z,1015.53
2019-03-31T11:58:25.690Z,1015.54
2019-03-31T11:59:27.128Z,1015.53
2019-03-31T12:00:25.940Z,1015.56
2019-03-31T12:01:25.339Z,1015.53
2019-03-31T12:02:27.429Z,1015.49
2019-03-31T12:03:26.037Z,1015.58
2019-03-31T12:04:25.570Z,1015.57
2019-03-31T12:05:25.756Z,1015.53
2019-03-31T12:06:25.244Z,1015.59
2019-03-31T12:07:28.099Z,1015.56
2019-03-31T12:08:28.680Z,1015.60
2019-03-31T12:09:27.803Z,1015.59
2019-03-31T12:10:28.287Z,1015.61
2019-03-31T12:11:25.232Z,1015.55
2019-03-31T12:12:25.421Z,1015.53
2019-03-31T12:13:25.214Z,1015.55
2019-03-31T12:14:25.127Z,1015.58
2019-03-31T12:15:25.765Z,1015.47
2019-03-31T12:16:30.521Z,1015.47
2019-03-31T12:17:25.732Z,1015.53
2019-03-31T12:18:28.169Z,1015.55
2019-03-31T12:19:25.689Z,1015.58
2019-03-31T12:20:32.763Z,1015.57
2019-03-31T12:21:48.222Z,1015.53
2019-03-31T12:22:27.723Z,1015.59
2019-03-31T12:23:27.258Z,1015.64
2019-03-31T12:24:54.676Z,1015.57
2019-03-31T12:25:25.727Z,1015.57
2019-03-31T12:26:27.941Z,1015.57
2019-03-31T12:27:27.843Z,1015.61
2019-03-31T12:28:26.673Z,1015.59
2019-03-31T12:29:46.917Z,1015.66
2019-03-31T12:30:29.700Z,1015.65
2019-03-31T12:31:40.074Z,1015.62
2019-03-31T12:32:28.785Z,1015.65
2019-03-31T12:33:26.488Z,1015.56
2019-03-31T12:34:25.949Z,1015.60
2019-03-31T12:35:32.014Z,1015.60
2019-03-31T12:36:26.535Z,1015.58
2019-03-31T12:37:41.324Z,1015.57
2019-03-31T12:38:29.726Z,1015.50
2019-03-31T12:39:51.230Z,1015.53
2019-03-31T12:40:29.372Z,1015.54
2019-03-31T12:41:25.067Z,1015.51
2019-03-31T12:42:27.697Z,1015.50
2019-03-31T12:43:28.254Z,1015.53